createdAt,value
2018-07-13T00:00:27.624Z,23.77
2018-07-13T00:00:58.806Z,23.76
2018-07-13T00:01:29.986Z,23.74
2018-07-13T00:02:01.199Z,23.73
2018-07-13T00:02:32.389Z,23.69
2018-07-13T00:03:03.579Z,23.67
2018-07-13T00:03:34.757Z,23.65
2018-07-13T00:04:05.982Z,23.62
2018-07-13T00:04:37.202Z,23.60
2018-07-13T00:05:08.387Z,23.54
2018-07-13T00:05:39.572Z,23.52
2018-07-13T00:06:10.750Z,23.49
2018-07-13T00:06:41.925Z,23.47
2018-07-13T00:07:13.093Z,23.43
2018-07-13T00:07:44.316Z,23.38
2018-07-13T00:08:15.553Z,23.39
2018-07-13T00:08:46.736Z,23.36
2018-07-13T00:09:17.965Z,23.34
2018-07-13T00:09:49.250Z,23.29
2018-07-13T00:10:20.438Z,23.28
2018-07-13T00:10:51.618Z,23.28
2018-07-13T00:11:22.788Z,23.26
2018-07-13T00:11:53.965Z,23.24
2018-07-13T00:12:25.137Z,23.26
2018-07-13T00:12:56.366Z,23.26
2018-07-13T00:13:27.556Z,23.25
2018-07-13T00:13:58.792Z,23.26
2018-07-13T00:14:30.032Z,23.26
2018-07-13T00:15:01.281Z,23.24
2018-07-13T00:15:32.506Z,23.26
2018-07-13T00:16:03.688Z,23.22
2018-07-13T00:16:34.856Z,23.20
2018-07-13T00:17:06.093Z,23.18
2018-07-13T00:17:37.334Z,23.15
2018-07-13T00:18:08.528Z,23.12
2018-07-13T00:18:39.747Z,23.10
2018-07-13T00:19:10.981Z,23.09
2018-07-13T00:19:43.278Z,23.07
2018-07-13T00:20:14.466Z,23.07
2018-07-13T00:20:45.710Z,23.05
2018-07-13T00:21:16.885Z,23.01
2018-07-13T00:21:48.057Z,22.97
2018-07-13T00:22:19.268Z,22.95
2018-07-13T00:22:50.472Z,22.92
2018-07-13T00:23:21.656Z,22.89
2018-07-13T00:23:52.837Z,22.88
2018-07-13T00:24:24.050Z,22.85
2018-07-13T00:24:55.246Z,22.80
2018-07-13T00:25:26.436Z,22.77
2018-07-13T00:25:57.612Z,22.75
2018-07-13T00:26:28.785Z,22.73
2018-07-13T00:27:00.013Z,22.72
2018-07-13T00:27:31.266Z,22.69
2018-07-13T00:28:02.537Z,22.66
2018-07-13T00:28:33.791Z,22.65
2018-07-13T00:29:05.055Z,22.65
2018-07-13T00:29:36.329Z,22.64
2018-07-13T00:30:07.572Z,22.60
2018-07-13T00:30:38.772Z,22.58
2018-07-13T00:31:10.015Z,22.57
2018-07-13T00:31:41.265Z,22.58
2018-07-13T00:32:12.500Z,22.58
2018-07-13T00:32:43.757Z,22.62
2018-07-13T00:33:14.944Z,22.65
2018-07-13T00:33:46.142Z,22.66
2018-07-13T00:34:17.318Z,22.69
2018-07-13T00:34:48.545Z,22.69
2018-07-13T00:35:19.765Z,22.71
2018-07-13T00:35:50.944Z,22.74
2018-07-13T00:36:22.181Z,22.73
2018-07-13T00:36:53.370Z,22.73
2018-07-13T00:37:24.539Z,22.71
2018-07-13T00:37:55.724Z,22.68
2018-07-13T00:38:26.942Z,22.66
2018-07-13T00:38:58.121Z,22.64
2018-07-13T00:39:29.350Z,22.63
2018-07-13T00:40:00.632Z,22.63
2018-07-13T00:40:31.820Z,22.63
2018-07-13T00:41:02.996Z,22.64
2018-07-13T00:41:34.176Z,22.61
2018-07-13T00:42:05.413Z,22.58
2018-07-13T00:42:36.620Z,22.58
2018-07-13T00:43:07.796Z,22.56
2018-07-13T00:43:39.516Z,22.55
2018-07-13T00:44:10.774Z,22.54
2018-07-13T00:44:41.989Z,22.54
2018-07-13T00:45:13.226Z,22.54
2018-07-13T00:45:44.392Z,22.52
2018-07-13T00:46:15.618Z,22.50
2018-07-13T00:46:46.861Z,22.50
2018-07-13T00:47:18.048Z,22.53
2018-07-13T00:47:49.224Z,22.53
2018-07-13T00:48:20.464Z,22.53
2018-07-13T00:48:51.649Z,22.54
2018-07-13T00:49:23.613Z,22.56
2018-07-13T00:49:54.807Z,22.55
2018-07-13T00:50:26.031Z,22.55
2018-07-13T00:50:57.256Z,22.57
2018-07-13T00:51:28.428Z,22.55
2018-07-13T00:51:59.592Z,22.54
2018-07-13T00:52:30.786Z,22.55
2018-07-13T00:53:02.023Z,22.55
2018-07-13T00:53:33.225Z,22.55
2018-07-13T00:54:04.446Z,22.54
2018-07-13T00:54:35.624Z,22.53
2018-07-13T00:55:06.856Z,22.50
2018-07-13T00:55:38.017Z,22.48
2018-07-13T00:56:09.240Z,22.46
2018-07-13T00:56:40.419Z,22.44
2018-07-13T00:57:11.604Z,22.39
2018-07-13T00:57:42.861Z,22.37
2018-07-13T00:58:14.044Z,22.35
2018-07-13T00:58:45.208Z,22.33
2018-07-13T00:59:16.403Z,22.31
2018-07-13T00:59:47.583Z,22.26
2018-07-13T01:00:18.805Z,22.24
2018-07-13T01:00:50.010Z,22.25
2018-07-13T01:01:21.192Z,22.25
2018-07-13T01:01:52.421Z,22.21
2018-07-13T01:02:23.604Z,22.20
2018-07-13T01:02:54.861Z,22.19
2018-07-13T01:03:26.093Z,22.18
2018-07-13T01:03:57.338Z,22.15
2018-07-13T01:04:28.531Z,22.15
2018-07-13T01:04:59.716Z,22.17
2018-07-13T01:05:30.942Z,22.18
2018-07-13T01:06:02.168Z,22.19
2018-07-13T01:06:33.345Z,22.20
2018-07-13T01:07:04.541Z,22.21
2018-07-13T01:07:35.769Z,22.22
2018-07-13T01:08:07.020Z,22.25
2018-07-13T01:08:38.210Z,22.24
2018-07-13T01:09:09.382Z,22.24
2018-07-13T01:09:41.543Z,22.22
2018-07-13T01:10:12.733Z,22.23
2018-07-13T01:10:43.916Z,22.25
2018-07-13T01:11:15.138Z,22.26
2018-07-13T01:11:46.317Z,22.25
2018-07-13T01:12:17.558Z,22.26
2018-07-13T01:12:48.742Z,22.30
2018-07-13T01:13:19.974Z,22.31
2018-07-13T01:13:51.210Z,22.32
2018-07-13T01:14:22.392Z,22.32
2018-07-13T01:14:53.564Z,22.28
2018-07-13T01:15:24.786Z,22.26
2018-07-13T01:15:55.972Z,22.22
2018-07-13T01:16:27.255Z,22.18
2018-07-13T01:16:58.464Z,22.13
2018-07-13T01:17:29.698Z,22.11
2018-07-13T01:18:00.879Z,22.08
2018-07-13T01:18:32.532Z,22.08
2018-07-13T01:19:03.763Z,22.06
2018-07-13T01:19:35.129Z,22.06
2018-07-13T01:20:06.364Z,22.07
2018-07-13T01:20:37.597Z,22.06
2018-07-13T01:21:08.823Z,22.05
2018-07-13T01:21:40.044Z,22.03
2018-07-13T01:22:11.225Z,22.02
2018-07-13T01:22:42.403Z,22.02
2018-07-13T01:23:13.590Z,22.03
2018-07-13T01:23:44.765Z,22.05
2018-07-13T01:24:15.932Z,22.08
2018-07-13T01:24:47.153Z,22.10
2018-07-13T01:25:18.325Z,22.13
2018-07-13T01:25:49.553Z,22.15
2018-07-13T01:26:20.741Z,22.18
2018-07-13T01:26:51.966Z,22.19
2018-07-13T01:27:23.152Z,22.19
2018-07-13T01:27:54.377Z,22.16
2018-07-13T01:28:25.568Z,22.14
2018-07-13T01:28:56.750Z,22.13
2018-07-13T01:29:27.982Z,22.13
2018-07-13T01:29:59.256Z,22.13
2018-07-13T01:30:30.440Z,22.16
2018-07-13T01:31:01.673Z,22.19
2018-07-13T01:31:32.900Z,22.22
2018-07-13T01:32:04.084Z,22.24
2018-07-13T01:32:35.314Z,22.23
2018-07-13T01:33:06.541Z,22.20
2018-07-13T01:33:37.721Z,22.18
2018-07-13T01:34:08.891Z,22.14
2018-07-13T01:34:40.057Z,22.11
2018-07-13T01:35:11.275Z,22.09
2018-07-13T01:35:42.464Z,22.05
2018-07-13T01:36:13.648Z,22.03
2018-07-13T01:36:44.833Z,22.01
2018-07-13T01:37:16.045Z,21.98
2018-07-13T01:37:47.210Z,21.95
2018-07-13T01:38:18.433Z,21.93
2018-07-13T01:38:49.613Z,21.93
2018-07-13T01:39:20.836Z,21.92
2018-07-13T01:39:52.049Z,21.93
2018-07-13T01:40:23.223Z,21.94
2018-07-13T01:40:54.389Z,21.94
2018-07-13T01:41:25.612Z,21.91
2018-07-13T01:41:56.783Z,21.91
2018-07-13T01:42:27.955Z,21.91
2018-07-13T01:42:59.173Z,21.93
2018-07-13T01:43:30.352Z,21.95
2018-07-13T01:44:01.581Z,21.99
2018-07-13T01:44:32.757Z,22.02
2018-07-13T01:45:03.973Z,22.06
2018-07-13T01:45:35.161Z,22.08
2018-07-13T01:46:06.389Z,22.09
2018-07-13T01:46:37.629Z,22.10
2018-07-13T01:47:08.804Z,22.09
2018-07-13T01:47:39.987Z,22.08
2018-07-13T01:48:11.198Z,22.07
2018-07-13T01:48:42.368Z,22.06
2018-07-13T01:49:13.536Z,22.07
2018-07-13T01:49:44.704Z,22.07
2018-07-13T01:50:17.055Z,22.08
2018-07-13T01:50:48.290Z,22.09
2018-07-13T01:51:19.472Z,22.12
2018-07-13T01:51:50.697Z,22.13
2018-07-13T01:52:21.864Z,22.13
2018-07-13T01:52:53.032Z,22.12
2018-07-13T01:53:24.202Z,22.13
2018-07-13T01:53:55.370Z,22.13
2018-07-13T01:54:26.601Z,22.13
2018-07-13T01:54:57.779Z,22.13
2018-07-13T01:55:29.017Z,22.13
2018-07-13T01:56:00.197Z,22.14
2018-07-13T01:56:31.388Z,22.14
2018-07-13T01:57:02.658Z,22.16
2018-07-13T01:57:33.843Z,22.16
2018-07-13T01:58:05.113Z,22.17
2018-07-13T01:58:36.298Z,22.18
2018-07-13T01:59:07.468Z,22.18
2018-07-13T01:59:38.721Z,22.15
2018-07-13T02:00:09.929Z,22.14
2018-07-13T02:00:41.114Z,22.13
2018-07-13T02:01:12.370Z,22.11
2018-07-13T02:01:43.560Z,22.11
2018-07-13T02:02:14.735Z,22.07
2018-07-13T02:02:45.905Z,22.07
2018-07-13T02:03:17.067Z,22.05
2018-07-13T02:03:48.240Z,22.05
2018-07-13T02:04:19.418Z,22.05
2018-07-13T02:04:50.650Z,22.06
2018-07-13T02:05:21.869Z,22.04
2018-07-13T02:05:53.101Z,22.02
2018-07-13T02:06:24.330Z,22.01
2018-07-13T02:06:55.566Z,22.00
2018-07-13T02:07:26.811Z,21.97
2018-07-13T02:07:58.396Z,21.93
2018-07-13T02:08:29.588Z,21.93
2018-07-13T02:09:00.766Z,21.92
2018-07-13T02:09:31.932Z,21.93
2018-07-13T02:10:04.670Z,21.95
2018-07-13T02:10:35.889Z,21.95
2018-07-13T02:11:07.070Z,21.98
2018-07-13T02:11:38.236Z,22.03
2018-07-13T02:12:09.709Z,22.03
2018-07-13T02:12:40.893Z,22.04
2018-07-13T02:13:12.068Z,22.03
2018-07-13T02:13:43.282Z,22.05
2018-07-13T02:14:14.450Z,22.01
2018-07-13T02:14:45.624Z,21.98
2018-07-13T02:15:16.840Z,21.96
2018-07-13T02:15:48.097Z,21.95
2018-07-13T02:16:19.286Z,21.94
2018-07-13T02:16:50.468Z,21.90
2018-07-13T02:17:21.694Z,21.89
2018-07-13T02:17:52.970Z,21.88
2018-07-13T02:18:24.144Z,21.86
2018-07-13T02:19:32.006Z,21.81
2018-07-13T02:20:03.277Z,21.76
2018-07-13T02:20:34.461Z,21.73
2018-07-13T02:21:05.673Z,21.72
2018-07-13T02:21:36.999Z,21.70
2018-07-13T02:22:08.184Z,21.68
2018-07-13T02:22:39.410Z,21.69
2018-07-13T02:23:10.589Z,21.68
2018-07-13T02:23:41.762Z,21.70
2018-07-13T02:24:12.998Z,21.72
2018-07-13T02:24:44.182Z,21.77
2018-07-13T02:25:15.384Z,21.80
2018-07-13T02:25:46.565Z,21.81
2018-07-13T02:26:17.742Z,21.78
2018-07-13T02:26:48.926Z,21.76
2018-07-13T02:27:20.102Z,21.74
2018-07-13T02:27:51.280Z,21.76
2018-07-13T02:28:22.453Z,21.77
2018-07-13T02:28:53.726Z,21.78
2018-07-13T02:29:24.915Z,21.81
2018-07-13T02:29:56.092Z,21.82
2018-07-13T02:30:27.262Z,21.83
2018-07-13T02:30:58.445Z,21.84
2018-07-13T02:31:29.713Z,21.88
2018-07-13T02:32:00.914Z,21.88
2018-07-13T02:32:32.097Z,21.88
2018-07-13T02:33:03.272Z,21.88
2018-07-13T02:33:34.504Z,21.89
2018-07-13T02:34:05.738Z,21.86
2018-07-13T02:34:36.965Z,21.83
2018-07-13T02:35:08.153Z,21.81
2018-07-13T02:35:39.342Z,21.81
2018-07-13T02:36:10.548Z,21.82
2018-07-13T02:36:41.767Z,21.79
2018-07-13T02:37:12.941Z,21.81
2018-07-13T02:37:44.124Z,21.80
2018-07-13T02:38:15.298Z,21.80
2018-07-13T02:38:46.541Z,21.81
2018-07-13T02:39:17.732Z,21.83
2018-07-13T02:39:48.904Z,21.82
2018-07-13T02:40:20.081Z,21.82
2018-07-13T02:40:51.313Z,21.85
2018-07-13T02:41:22.542Z,21.87
2018-07-13T02:41:53.725Z,21.91
2018-07-13T02:42:24.942Z,21.93
2018-07-13T02:42:56.126Z,21.96
2018-07-13T02:43:27.358Z,21.99
2018-07-13T02:43:58.621Z,22.02
2018-07-13T02:44:29.809Z,22.04
2018-07-13T02:45:00.996Z,22.05
2018-07-13T02:45:32.191Z,22.04
2018-07-13T02:46:03.413Z,22.07
2018-07-13T02:46:34.596Z,22.08
2018-07-13T02:47:05.765Z,22.08
2018-07-13T02:47:36.945Z,22.09
2018-07-13T02:48:08.116Z,22.10
2018-07-13T02:48:39.333Z,22.11
2018-07-13T02:49:10.500Z,22.11
2018-07-13T02:49:41.730Z,22.10
2018-07-13T02:50:12.965Z,22.11
2018-07-13T02:50:44.194Z,22.11
2018-07-13T02:51:15.452Z,22.12
2018-07-13T02:51:46.580Z,22.12
2018-07-13T02:52:17.797Z,22.13
2018-07-13T02:52:48.968Z,22.12
2018-07-13T02:53:20.157Z,22.11
2018-07-13T02:53:51.390Z,22.10
2018-07-13T02:54:22.590Z,22.11
2018-07-13T02:54:53.801Z,22.07
2018-07-13T02:55:25.053Z,22.07
2018-07-13T02:55:56.292Z,22.06
2018-07-13T02:56:28.500Z,22.06
2018-07-13T02:56:59.765Z,22.06
2018-07-13T02:57:31.002Z,22.05
2018-07-13T02:58:02.246Z,22.05
2018-07-13T02:58:33.441Z,22.04
2018-07-13T02:59:04.694Z,22.01
2018-07-13T02:59:35.881Z,22.00
2018-07-13T03:00:07.113Z,21.99
2018-07-13T03:00:38.294Z,21.95
2018-07-13T03:01:10.418Z,21.95
2018-07-13T03:01:41.692Z,21.94
2018-07-13T03:02:12.985Z,21.96
2018-07-13T03:02:44.170Z,21.96
2018-07-13T03:03:15.336Z,21.96
2018-07-13T03:03:46.509Z,21.93
2018-07-13T03:04:17.729Z,21.94
2018-07-13T03:04:48.912Z,21.94
2018-07-13T03:05:20.079Z,21.94
2018-07-13T03:05:51.322Z,21.95
2018-07-13T03:06:22.557Z,21.96
2018-07-13T03:06:53.781Z,21.99
2018-07-13T03:07:25.004Z,21.95
2018-07-13T03:07:56.177Z,21.94
2018-07-13T03:08:27.351Z,21.95
2018-07-13T03:08:58.577Z,21.97
2018-07-13T03:09:29.872Z,21.99
2018-07-13T03:10:01.072Z,22.01
2018-07-13T03:10:32.248Z,22.07
2018-07-13T03:11:03.425Z,22.11
2018-07-13T03:11:34.611Z,22.11
2018-07-13T03:12:05.785Z,22.15
2018-07-13T03:12:37.015Z,22.19
2018-07-13T03:13:08.226Z,22.22
2018-07-13T03:13:39.454Z,22.28
2018-07-13T03:14:10.774Z,22.33
2018-07-13T03:14:41.955Z,22.34
2018-07-13T03:15:13.136Z,22.39
2018-07-13T03:15:44.378Z,22.40
2018-07-13T03:16:15.555Z,22.46
2018-07-13T03:16:46.724Z,22.51
2018-07-13T03:17:17.961Z,22.57
2018-07-13T03:17:49.144Z,22.63
2018-07-13T03:18:20.364Z,22.67
2018-07-13T03:18:51.544Z,22.73
2018-07-13T03:19:22.813Z,22.77
2018-07-13T03:19:53.990Z,22.82
2018-07-13T03:20:25.225Z,22.89
2018-07-13T03:20:56.454Z,22.96
2018-07-13T03:21:27.689Z,23.01
2018-07-13T03:21:58.877Z,23.07
2018-07-13T03:22:30.049Z,23.12
2018-07-13T03:23:01.238Z,23.16
2018-07-13T03:23:32.419Z,23.22
2018-07-13T03:24:03.648Z,23.28
2018-07-13T03:24:34.939Z,23.34
2018-07-13T03:25:06.117Z,23.41
2018-07-13T03:25:37.297Z,23.45
2018-07-13T03:26:08.569Z,23.52
2018-07-13T03:26:39.805Z,23.58
2018-07-13T03:27:10.981Z,23.64
2018-07-13T03:27:42.157Z,23.68
2018-07-13T03:28:13.328Z,23.69
2018-07-13T03:28:44.905Z,23.69
2018-07-13T03:29:16.116Z,23.69
2018-07-13T03:29:47.356Z,23.70
2018-07-13T03:30:18.540Z,23.70
2018-07-13T03:30:49.737Z,23.74
2018-07-13T03:31:20.966Z,23.80
2018-07-13T03:31:52.211Z,23.82
2018-07-13T03:32:23.408Z,23.85
2018-07-13T03:32:54.621Z,23.90
2018-07-13T03:33:25.801Z,23.95
2018-07-13T03:33:56.994Z,24.01
2018-07-13T03:34:28.218Z,24.11
2018-07-13T03:34:59.444Z,24.20
2018-07-13T03:35:30.673Z,24.13
2018-07-13T03:36:01.914Z,24.33
2018-07-13T03:36:33.092Z,24.38
2018-07-13T03:37:04.328Z,24.43
2018-07-13T03:37:35.561Z,24.47
2018-07-13T03:38:06.756Z,24.57
2018-07-13T03:38:37.936Z,24.66
2018-07-13T03:39:09.111Z,24.70
2018-07-13T03:39:40.613Z,24.74
2018-07-13T03:40:11.837Z,24.79
2018-07-13T03:40:43.024Z,24.85
2018-07-13T03:41:14.202Z,24.95
2018-07-13T03:41:45.441Z,25.04
2018-07-13T03:42:16.625Z,25.07
2018-07-13T03:42:47.816Z,25.15
2018-07-13T03:43:19.006Z,25.24
2018-07-13T03:43:50.205Z,25.29
2018-07-13T03:44:21.392Z,25.36
2018-07-13T03:44:52.565Z,25.42
2018-07-13T03:45:23.790Z,25.47
2018-07-13T03:45:54.969Z,25.55
2018-07-13T03:46:28.550Z,25.61
2018-07-13T03:47:00.145Z,25.73
2018-07-13T03:47:31.329Z,25.86
2018-07-13T03:48:03.778Z,25.93
2018-07-13T03:48:35.012Z,26.01
2018-07-13T03:49:06.204Z,26.06
2018-07-13T03:49:37.385Z,26.12
2018-07-13T03:50:08.612Z,26.13
2018-07-13T03:50:39.847Z,26.16
2018-07-13T03:51:11.792Z,26.25
2018-07-13T03:51:43.035Z,26.33
2018-07-13T03:52:14.216Z,26.40
2018-07-13T03:52:45.392Z,26.50
2018-07-13T03:53:16.573Z,26.56
2018-07-13T03:53:47.810Z,26.65
2018-07-13T03:54:19.089Z,26.72
2018-07-13T03:54:51.157Z,26.73
2018-07-13T03:55:22.388Z,26.76
2018-07-13T03:55:53.633Z,26.79
2018-07-13T03:56:24.812Z,26.88
2018-07-13T03:56:56.125Z,26.94
2018-07-13T03:57:27.368Z,27.02
2018-07-13T03:57:58.609Z,27.14
2018-07-13T03:58:29.813Z,27.21
2018-07-13T03:59:01.040Z,27.31
2018-07-13T03:59:32.265Z,27.30
2018-07-13T04:00:03.503Z,27.34
2018-07-13T04:00:34.823Z,27.42
2018-07-13T04:01:06.037Z,27.47
2018-07-13T04:01:37.269Z,27.55
2018-07-13T04:02:08.505Z,27.52
2018-07-13T04:02:39.692Z,27.46
2018-07-13T04:03:10.938Z,27.28
2018-07-13T04:03:42.172Z,27.09
2018-07-13T04:04:13.383Z,26.92
2018-07-13T04:04:44.606Z,26.80
2018-07-13T04:05:15.773Z,26.70
2018-07-13T04:05:46.996Z,26.55
2018-07-13T04:06:18.190Z,26.41
2018-07-13T04:06:49.422Z,26.21
2018-07-13T04:07:20.614Z,26.04
2018-07-13T04:07:51.792Z,25.94
2018-07-13T04:08:22.966Z,25.89
2018-07-13T04:08:54.155Z,25.90
2018-07-13T04:09:25.383Z,25.95
2018-07-13T04:09:56.636Z,26.03
2018-07-13T04:10:27.877Z,26.17
2018-07-13T04:10:59.111Z,26.39
2018-07-13T04:11:30.310Z,26.55
2018-07-13T04:12:01.540Z,26.79
2018-07-13T04:12:32.744Z,27.04
2018-07-13T04:13:03.924Z,27.29
2018-07-13T04:13:35.112Z,27.40
2018-07-13T04:14:06.341Z,27.59
2018-07-13T04:14:37.586Z,27.67
2018-07-13T04:15:08.828Z,27.70
2018-07-13T04:15:40.033Z,27.72
2018-07-13T04:16:11.261Z,27.69
2018-07-13T04:16:42.453Z,27.58
2018-07-13T04:17:13.725Z,27.45
2018-07-13T04:17:44.974Z,27.30
2018-07-13T04:18:16.538Z,27.13
2018-07-13T04:18:47.718Z,26.98
2018-07-13T04:19:18.916Z,26.89
2018-07-13T04:19:50.106Z,26.89
2018-07-13T04:20:21.280Z,26.99
2018-07-13T04:20:52.473Z,27.14
2018-07-13T04:21:23.709Z,27.30
2018-07-13T04:21:54.982Z,27.45
2018-07-13T04:22:26.174Z,27.58
2018-07-13T04:22:57.352Z,27.71
2018-07-13T04:23:28.580Z,27.68
2018-07-13T04:23:59.825Z,27.59
2018-07-13T04:24:31.069Z,27.51
2018-07-13T04:25:02.332Z,27.33
2018-07-13T04:25:33.556Z,27.19
2018-07-13T04:26:04.788Z,27.12
2018-07-13T04:26:36.022Z,27.01
2018-07-13T04:27:07.386Z,26.95
2018-07-13T04:27:38.572Z,27.00
2018-07-13T04:28:09.750Z,27.08
2018-07-13T04:28:41.053Z,27.24
2018-07-13T04:29:13.181Z,27.44
2018-07-13T04:29:44.376Z,27.64
2018-07-13T04:30:16.204Z,27.84
2018-07-13T04:30:47.389Z,27.89
2018-07-13T04:31:18.577Z,27.83
2018-07-13T04:31:49.760Z,27.77
2018-07-13T04:32:21.033Z,27.62
2018-07-13T04:32:52.214Z,27.50
2018-07-13T04:33:24.200Z,27.41
2018-07-13T04:33:55.393Z,27.26
2018-07-13T04:34:26.570Z,27.12
2018-07-13T04:34:57.813Z,27.07
2018-07-13T04:35:29.090Z,27.03
2018-07-13T04:36:00.301Z,26.99
2018-07-13T04:36:31.489Z,26.88
2018-07-13T04:37:03.106Z,26.81
2018-07-13T04:37:34.955Z,26.79
2018-07-13T04:38:06.148Z,26.81
2018-07-13T04:38:37.409Z,26.97
2018-07-13T04:39:08.612Z,27.20
2018-07-13T04:39:39.849Z,27.48
2018-07-13T04:40:11.047Z,27.80
2018-07-13T04:40:42.402Z,28.13
2018-07-13T04:41:14.477Z,28.42
2018-07-13T04:41:45.657Z,28.60
2018-07-13T04:42:16.837Z,28.74
2018-07-13T04:42:48.020Z,28.80
2018-07-13T04:43:19.196Z,28.89
2018-07-13T04:43:50.424Z,28.97
2018-07-13T04:44:21.627Z,28.97
2018-07-13T04:44:53.645Z,28.93
2018-07-13T04:45:24.826Z,28.59
2018-07-13T04:45:56.035Z,28.39
2018-07-13T04:46:27.269Z,28.15
2018-07-13T04:46:58.456Z,27.92
2018-07-13T04:47:29.809Z,27.73
2018-07-13T04:48:01.011Z,27.51
2018-07-13T04:48:34.207Z,27.39
2018-07-13T04:49:03.449Z,27.24
2018-07-13T04:49:34.686Z,27.20
2018-07-13T04:50:05.923Z,27.10
2018-07-13T04:50:37.100Z,27.00
2018-07-13T04:51:08.301Z,26.88
2018-07-13T04:51:39.505Z,26.82
2018-07-13T04:52:10.799Z,26.65
2018-07-13T04:52:42.058Z,26.60
2018-07-13T04:53:13.270Z,26.61
2018-07-13T04:53:44.490Z,26.69
2018-07-13T04:54:16.496Z,26.84
2018-07-13T04:54:47.692Z,26.97
2018-07-13T04:55:19.680Z,27.12
2018-07-13T04:55:50.917Z,27.20
2018-07-13T04:56:22.100Z,27.31
2018-07-13T04:56:53.291Z,27.24
2018-07-13T04:57:24.529Z,27.30
2018-07-13T04:57:55.776Z,27.21
2018-07-13T04:58:27.549Z,27.17
2018-07-13T04:58:58.791Z,27.13
2018-07-13T04:59:30.092Z,27.12
2018-07-13T05:00:01.288Z,27.23
2018-07-13T05:00:32.520Z,27.36
2018-07-13T05:01:03.755Z,27.57
2018-07-13T05:01:35.593Z,27.79
2018-07-13T05:02:06.774Z,28.08
2018-07-13T05:02:37.960Z,28.09
2018-07-13T05:03:09.204Z,28.39
2018-07-13T05:03:40.399Z,28.64
2018-07-13T05:04:11.592Z,28.89
2018-07-13T05:04:42.858Z,29.01
2018-07-13T05:05:14.045Z,29.18
2018-07-13T05:05:45.249Z,29.28
2018-07-13T05:06:16.449Z,29.50
2018-07-13T05:06:47.632Z,29.50
2018-07-13T05:07:18.843Z,29.74
2018-07-13T05:07:50.072Z,29.83
2018-07-13T05:08:21.264Z,30.13
2018-07-13T05:08:52.494Z,30.26
2018-07-13T05:09:23.729Z,30.50
2018-07-13T05:09:54.974Z,30.62
2018-07-13T05:10:26.260Z,30.82
2018-07-13T05:10:57.484Z,30.98
2018-07-13T05:11:28.664Z,31.08
2018-07-13T05:11:59.832Z,31.26
2018-07-13T05:12:31.009Z,31.45
2018-07-13T05:13:02.216Z,31.66
2018-07-13T05:13:33.393Z,31.80
2018-07-13T05:14:04.572Z,31.77
2018-07-13T05:14:35.760Z,31.92
2018-07-13T05:15:06.991Z,31.92
2018-07-13T05:15:38.168Z,31.99
2018-07-13T05:16:09.341Z,32.04
2018-07-13T05:16:40.525Z,32.12
2018-07-13T05:17:11.697Z,32.16
2018-07-13T05:17:42.937Z,32.27
2018-07-13T05:18:14.128Z,32.39
2018-07-13T05:18:45.353Z,32.54
2018-07-13T05:19:16.541Z,32.64
2018-07-13T05:19:47.721Z,32.52
2018-07-13T05:20:18.936Z,32.67
2018-07-13T05:20:50.169Z,32.78
2018-07-13T05:21:21.473Z,32.89
2018-07-13T05:21:52.634Z,32.94
2018-07-13T05:22:23.814Z,32.96
2018-07-13T05:22:54.995Z,32.94
2018-07-13T05:23:26.192Z,32.88
2018-07-13T05:23:57.371Z,32.87
2018-07-13T05:24:28.601Z,32.89
2018-07-13T05:24:59.793Z,32.99
2018-07-13T05:25:31.025Z,32.95
2018-07-13T05:26:02.208Z,32.79
2018-07-13T05:26:33.392Z,32.91
2018-07-13T05:27:04.594Z,33.10
2018-07-13T05:27:35.789Z,33.28
2018-07-13T05:28:07.069Z,33.37
2018-07-13T05:28:38.260Z,33.46
2018-07-13T05:29:09.449Z,33.53
2018-07-13T05:29:40.628Z,33.61
2018-07-13T05:30:11.865Z,33.66
2018-07-13T05:30:43.080Z,33.59
2018-07-13T05:31:14.269Z,33.33
2018-07-13T05:31:45.534Z,33.31
2018-07-13T05:32:16.752Z,33.23
2018-07-13T05:32:47.944Z,33.06
2018-07-13T05:33:19.186Z,32.92
2018-07-13T05:33:50.420Z,32.84
2018-07-13T05:34:21.608Z,32.82
2018-07-13T05:34:52.800Z,32.76
2018-07-13T05:35:23.983Z,32.55
2018-07-13T05:35:55.217Z,32.42
2018-07-13T05:36:26.416Z,32.51
2018-07-13T05:36:57.658Z,32.67
2018-07-13T05:37:28.850Z,32.75
2018-07-13T05:38:00.043Z,32.79
2018-07-13T05:38:31.314Z,32.71
2018-07-13T05:39:02.517Z,32.61
2018-07-13T05:39:33.859Z,32.59
2018-07-13T05:40:05.056Z,32.63
2018-07-13T05:40:36.282Z,32.67
2018-07-13T05:41:08.090Z,32.76
2018-07-13T05:41:39.268Z,32.74
2018-07-13T05:42:10.452Z,32.72
2018-07-13T05:42:41.672Z,32.79
2018-07-13T05:43:12.888Z,32.86
2018-07-13T05:43:44.163Z,32.94
2018-07-13T05:44:15.371Z,32.84
2018-07-13T05:44:46.593Z,32.54
2018-07-13T05:45:17.776Z,32.30
2018-07-13T05:45:48.996Z,32.13
2018-07-13T05:46:20.187Z,32.08
2018-07-13T05:46:51.403Z,32.08
2018-07-13T05:47:22.641Z,32.08
2018-07-13T05:47:53.817Z,32.01
2018-07-13T05:48:24.997Z,31.86
2018-07-13T05:48:56.226Z,31.77
2018-07-13T05:49:32.334Z,31.69
2018-07-13T05:50:03.464Z,31.72
2018-07-13T05:50:34.626Z,31.67
2018-07-13T05:51:05.891Z,31.67
2018-07-13T05:51:37.111Z,31.69
2018-07-13T05:52:08.224Z,31.80
2018-07-13T05:52:39.405Z,31.89
2018-07-13T05:53:10.600Z,31.14
2018-07-13T05:53:41.831Z,31.78
2018-07-13T05:54:13.048Z,31.71
2018-07-13T05:54:44.449Z,31.78
2018-07-13T05:55:15.654Z,31.65
2018-07-13T05:55:46.906Z,31.68
2018-07-13T05:56:18.255Z,31.67
2018-07-13T05:56:49.429Z,31.54
2018-07-13T05:57:20.642Z,31.35
2018-07-13T05:57:51.873Z,31.19
2018-07-13T05:58:23.116Z,31.09
2018-07-13T05:58:54.332Z,30.92
2018-07-13T05:59:25.553Z,30.83
2018-07-13T05:59:56.777Z,30.76
2018-07-13T06:00:27.944Z,30.74
2018-07-13T06:00:59.154Z,30.60
2018-07-13T06:01:30.393Z,30.62
2018-07-13T06:02:01.613Z,30.65
2018-07-13T06:02:33.914Z,30.65
2018-07-13T06:03:05.996Z,30.65
2018-07-13T06:03:37.170Z,30.71
2018-07-13T06:04:08.393Z,30.71
2018-07-13T06:04:39.588Z,30.67
2018-07-13T06:05:10.793Z,30.59
2018-07-13T06:05:41.995Z,30.52
2018-07-13T06:06:13.328Z,30.51
2018-07-13T06:06:44.564Z,30.45
2018-07-13T06:07:15.759Z,30.51
2018-07-13T06:07:47.072Z,30.58
2018-07-13T06:08:18.297Z,30.60
2018-07-13T06:08:49.550Z,30.59
2018-07-13T06:09:20.725Z,30.55
2018-07-13T06:09:51.946Z,30.58
2018-07-13T06:10:23.190Z,30.59
2018-07-13T06:10:54.360Z,30.64
2018-07-13T06:11:25.540Z,30.65
2018-07-13T06:11:56.753Z,30.66
2018-07-13T06:12:28.101Z,30.73
2018-07-13T06:12:59.342Z,30.83
2018-07-13T06:13:30.590Z,30.91
2018-07-13T06:14:01.820Z,30.95
2018-07-13T06:14:33.065Z,30.87
2018-07-13T06:15:05.483Z,30.86
2018-07-13T06:15:36.671Z,30.88
2018-07-13T06:16:07.882Z,30.88
2018-07-13T06:16:39.184Z,30.92
2018-07-13T06:17:10.493Z,30.85
2018-07-13T06:17:41.670Z,30.66
2018-07-13T06:18:12.840Z,30.58
2018-07-13T06:18:44.026Z,30.45
2018-07-13T06:19:15.265Z,30.50
2018-07-13T06:19:46.493Z,30.35
2018-07-13T06:20:17.708Z,30.29
2018-07-13T06:20:48.957Z,30.21
2018-07-13T06:21:20.149Z,30.18
2018-07-13T06:21:51.369Z,30.15
2018-07-13T06:22:23.229Z,30.20
2018-07-13T06:22:54.404Z,30.31
2018-07-13T06:23:25.657Z,30.41
2018-07-13T06:23:56.908Z,30.50
2018-07-13T06:24:28.086Z,30.52
2018-07-13T06:24:59.276Z,30.45
2018-07-13T06:25:30.471Z,30.37
2018-07-13T06:26:01.748Z,30.40
2018-07-13T06:26:32.953Z,30.52
2018-07-13T06:27:04.141Z,30.60
2018-07-13T06:27:35.425Z,30.63
2018-07-13T06:28:06.612Z,30.60
2018-07-13T06:28:38.089Z,30.64
2018-07-13T06:29:09.436Z,30.64
2018-07-13T06:29:40.726Z,30.66
2018-07-13T06:30:11.983Z,30.58
2018-07-13T06:30:43.249Z,30.55
2018-07-13T06:31:14.438Z,30.58
2018-07-13T06:31:45.694Z,30.69
2018-07-13T06:32:17.834Z,30.73
2018-07-13T06:32:49.037Z,30.71
2018-07-13T06:33:20.221Z,30.68
2018-07-13T06:33:51.449Z,30.67
2018-07-13T06:34:22.679Z,30.66
2018-07-13T06:34:53.863Z,30.65
2018-07-13T06:35:25.106Z,30.72
2018-07-13T06:35:56.325Z,30.70
2018-07-13T06:36:27.510Z,30.78
2018-07-13T06:36:58.743Z,30.77
2018-07-13T06:37:29.938Z,30.79
2018-07-13T06:38:01.258Z,30.78
2018-07-13T06:38:32.486Z,30.83
2018-07-13T06:39:03.724Z,30.88
2018-07-13T06:39:35.801Z,30.84
2018-07-13T06:40:07.020Z,30.76
2018-07-13T06:40:38.245Z,30.71
2018-07-13T06:41:10.000Z,30.73
2018-07-13T06:42:17.905Z,30.94
2018-07-13T06:42:49.093Z,30.97
2018-07-13T06:43:20.277Z,30.98
2018-07-13T06:43:51.454Z,31.00